Time;durP1;ratioP1;P1;durP2;ratioP2;P2;SDS_P1;SDS_P2;PMS_P1;PMS_P2;Temp;Humidity;BMP_temperature;BMP_pressure;BME280_temperature;BME280_humidity;BME280_pressure;Samples;Min_cycle;Max_cycle;Signal;HPM_P1;HPM_P2
2023/09/06 00:00:55;;;;;;;2.20;2.00;;;26.00;54.60;26.80;101129.00;;;;5049759;28;20174;-46
2023/09/06 00:03:21;;;;;;;2.45;2.20;;;26.00;54.90;26.60;101131.00;;;;5014579;28;20217;-46
2023/09/06 00:05:47;;;;;;;2.30;2.10;;;26.00;54.90;26.70;101139.00;;;;5030612;28;20208;-46
2023/09/06 00:08:14;;;;;;;2.40;2.20;;;26.00;54.90;26.70;101136.00;;;;5030296;28;20573;-46
2023/09/06 00:10:44;;;;;;;2.40;2.20;;;26.00;54.90;26.70;101131.00;;;;5030820;28;20312;-46
2023/09/06 00:13:11;;;;;;;2.40;2.17;;;26.00;55.00;26.70;101130.00;;;;5033074;28;20504;-47
2023/09/06 00:15:37;;;;;;;3.45;2.40;;;26.00;54.90;26.70;101141.00;;;;5040309;28;20182;-47
2023/09/06 00:18:07;;;;;;;2.50;2.22;;;25.90;54.90;26.70;101132.00;;;;5048074;28;20604;-47
2023/09/06 00:20:38;;;;;;;3.08;2.20;;;25.90;54.80;26.70;101129.00;;;;5048197;28;20623;-46
2023/09/06 00:23:09;;;;;;;2.50;2.20;;;25.90;54.80;26.70;101123.00;;;;5048458;28;20186;-46
2023/09/06 00:25:35;;;;;;;2.92;2.20;;;25.90;54.80;26.60;101129.00;;;;5041141;28;20263;-47
2023/09/06 00:28:05;;;;;;;2.40;2.20;;;25.90;54.90;26.60;101081.00;;;;5050280;28;20290;-46
2023/09/06 00:30:31;;;;;;;2.42;2.22;;;25.90;55.10;26.60;101139.00;;;;5051135;28;20201;-47
2023/09/06 00:32:58;;;;;;;3.05;2.30;;;25.80;55.10;26.60;101138.00;;;;5048533;28;20523;-46
2023/09/06 00:35:24;;;;;;;2.50;2.30;;;25.80;55.50;26.60;101133.00;;;;5048563;28;20182;-47
2023/09/06 00:37:51;;;;;;;2.72;2.10;;;25.90;55.80;26.60;101136.00;;;;5048028;28;20202;-46
2023/09/06 00:40:18;;;;;;;2.45;2.20;;;25.90;56.00;26.60;101130.00;;;;5046983;28;20178;-47
2023/09/06 00:42:53;;;;;;;2.80;2.30;;;25.90;56.20;26.50;101138.00;;;;5050683;28;20276;-47
2023/09/06 00:45:22;;;;;;;2.40;2.20;;;25.90;56.60;26.50;101139.00;;;;5049232;28;20729;-46
2023/09/06 00:47:51;;;;;;;2.78;2.20;;;25.80;56.70;26.50;101140.00;;;;5047912;28;20432;-46
2023/09/06 00:50:18;;;;;;;3.35;2.30;;;25.80;57.00;26.50;101127.00;;;;5046799;28;20174;-46
2023/09/06 00:52:44;;;;;;;3.67;2.30;;;25.80;57.00;26.50;101123.00;;;;5046458;28;20170;-46
2023/09/06 00:55:10;;;;;;;2.53;2.33;;;25.80;57.10;26.50;101129.00;;;;5048217;28;20166;-46
2023/09/06 00:57:36;;;;;;;3.00;2.30;;;25.70;57.20;26.50;101137.00;;;;5047503;28;20237;-46
2023/09/06 01:00:06;;;;;;;2.65;2.10;;;25.70;57.30;26.30;101141.00;;;;5046623;28;20194;-46
2023/09/06 01:02:32;;;;;;;2.63;2.22;;;25.70;57.30;26.40;101139.00;;;;5048128;28;20198;-47
2023/09/06 01:04:58;;;;;;;2.65;2.45;;;25.70;57.50;26.40;101141.00;;;;5026558;28;20653;-46
2023/09/06 01:07:28;;;;;;;2.50;2.30;;;25.70;58.20;26.40;101146.00;;;;5061084;28;20198;-47
2023/09/06 01:09:53;;;;;;;2.70;2.38;;;25.70;57.70;26.40;101151.00;;;;5047807;28;20359;-46
2023/09/06 01:12:19;;;;;;;2.70;2.20;;;25.60;57.80;26.40;101147.00;;;;5046604;28;20700;-48
2023/09/06 01:14:45;;;;;;;3.70;2.25;;;25.60;57.90;26.30;101155.00;;;;5050020;28;20205;-47
2023/09/06 01:17:12;;;;;;;2.35;2.15;;;25.60;58.00;26.30;101149.00;;;;5046354;28;20221;-47
2023/09/06 01:19:43;;;;;;;2.50;2.30;;;25.60;58.00;26.30;101160.00;;;;5026506;28;20186;-47
2023/09/06 01:22:20;;;;;;;2.85;2.22;;;25.60;58.00;26.30;101154.00;;;;5014447;28;20236;-46
2023/09/06 01:24:46;;;;;;;2.80;2.40;;;25.60;58.10;26.20;101164.00;;;;5041013;28;20190;-46
2023/09/06 01:27:12;;;;;;;2.58;2.38;;;25.60;58.30;26.20;101156.00;;;;5045601;28;20591;-46
2023/09/06 01:29:38;;;;;;;2.80;2.22;;;25.50;58.20;26.20;101157.00;;;;5047569;28;20309;-47
2023/09/06 01:32:05;;;;;;;2.95;2.30;;;25.50;58.30;26.20;101160.00;;;;5046105;28;20205;-46
2023/09/06 01:34:31;;;;;;;3.05;2.28;;;25.50;58.30;26.20;101159.00;;;;5047315;28;20387;-46
2023/09/06 01:36:57;;;;;;;3.53;2.38;;;25.50;58.30;26.10;101161.00;;;;5045753;28;20705;-46
2023/09/06 01:39:23;;;;;;;3.38;2.40;;;25.50;58.30;26.10;101162.00;;;;5047224;28;20205;-48
2023/09/06 01:41:48;;;;;;;2.50;2.30;;;25.50;58.20;26.10;101163.00;;;;5057768;28;20197;-46
2023/09/06 01:44:14;;;;;;;2.60;2.40;;;25.50;58.30;26.10;101156.00;;;;5045874;28;20248;-46
2023/09/06 01:46:41;;;;;;;3.83;2.63;;;25.50;58.30;26.10;101151.00;;;;5029057;28;20263;-47
2023/09/06 01:49:08;;;;;;;2.35;2.17;;;25.40;58.30;26.10;101144.00;;;;5045876;28;20247;-47
2023/09/06 01:51:35;;;;;;;2.50;2.30;;;25.40;58.40;26.10;101153.00;;;;5046153;28;20367;-46
2023/09/06 01:54:04;;;;;;;2.60;2.40;;;25.50;58.50;26.10;101144.00;;;;5047549;28;20182;-45
2023/09/06 01:56:30;;;;;;;2.60;2.22;;;25.40;58.50;26.10;101150.00;;;;5046034;28;20182;-48
2023/09/06 01:58:56;;;;;;;4.47;2.35;;;25.50;58.70;26.00;101145.00;;;;5046178;28;20170;-47
2023/09/06 02:01:22;;;;;;;3.67;2.30;;;25.40;58.60;26.00;101145.00;;;;5047452;28;20189;-46
2023/09/06 02:03:48;;;;;;;2.42;2.22;;;25.40;58.70;26.00;101149.00;;;;5047455;28;20181;-46
2023/09/06 02:06:13;;;;;;;2.63;2.42;;;25.30;58.70;26.00;101156.00;;;;5047087;28;20244;-46
2023/09/06 02:08:42;;;;;;;2.92;2.30;;;25.30;58.80;25.90;101153.00;;;;5045497;28;20667;-46
2023/09/06 02:11:07;;;;;;;2.60;2.40;;;25.30;58.80;25.90;101147.00;;;;5050439;28;20190;-46
2023/09/06 02:13:33;;;;;;;2.40;2.20;;;25.30;58.80;25.90;101149.00;;;;5051420;28;20181;-46
2023/09/06 02:16:00;;;;;;;2.35;2.20;;;25.20;58.70;25.90;101152.00;;;;5049258;28;20201;-47
2023/09/06 02:18:26;;;;;;;2.30;2.20;;;25.30;58.80;25.80;101152.00;;;;5049111;28;20218;-46
2023/09/06 02:20:56;;;;;;;3.95;2.50;;;25.30;58.80;25.80;101155.00;;;;5048928;28;20188;-46
2023/09/06 02:23:22;;;;;;;3.10;2.20;;;25.30;58.80;25.80;101154.00;;;;5054592;28;20283;-48
2023/09/06 02:25:48;;;;;;;3.03;2.38;;;25.20;58.70;25.70;101163.00;;;;5050347;28;20209;-46
2023/09/06 02:28:17;;;;;;;3.42;2.30;;;25.10;58.70;25.70;101153.00;;;;5050420;28;20224;-46
2023/09/06 02:30:43;;;;;;;2.67;2.30;;;25.10;58.80;25.70;101156.00;;;;5050433;28;20633;-46
2023/09/06 02:33:11;;;;;;;3.22;2.22;;;25.10;58.90;25.70;101117.00;;;;5051333;28;20286;-46
2023/09/06 02:35:40;;;;;;;2.53;2.20;;;25.10;58.90;25.70;101156.00;;;;5054146;28;20240;-46
2023/09/06 02:38:07;;;;;;;4.80;2.65;;;25.10;58.70;25.70;101158.00;;;;5050357;28;20216;-45
2023/09/06 02:40:34;;;;;;;2.45;2.15;;;25.10;58.70;25.70;101161.00;;;;5050383;28;20181;-47
2023/09/06 02:43:02;;;;;;;2.50;2.30;;;25.10;58.70;25.60;101148.00;;;;5050578;28;20238;-46
2023/09/06 02:45:49;;;;;;;3.63;2.28;;;25.00;58.60;25.60;101159.00;;;;5050452;28;20233;-46
2023/09/06 02:48:18;;;;;;;2.30;2.20;;;25.00;58.60;25.60;101140.00;;;;5051001;28;20228;-46
2023/09/06 02:50:46;;;;;;;2.40;2.20;;;25.00;58.60;25.60;101160.00;;;;5053520;28;20186;-46
2023/09/06 02:53:19;;;;;;;2.88;2.20;;;25.00;58.60;25.60;101158.00;;;;5049874;28;20262;-46
2023/09/06 02:55:48;;;;;;;2.40;2.20;;;25.00;58.70;25.50;101159.00;;;;5050067;28;20178;-46
2023/09/06 02:58:15;;;;;;;3.10;2.40;;;25.00;58.80;25.50;101166.00;;;;5049571;28;20206;-46
2023/09/06 03:00:43;;;;;;;2.55;2.33;;;25.00;58.80;25.50;101161.00;;;;5043230;28;20174;-46
2023/09/06 03:03:10;;;;;;;2.30;2.10;;;25.00;58.60;25.50;101160.00;;;;5051808;28;20270;-46
2023/09/06 03:05:42;;;;;;;2.53;2.20;;;24.90;58.60;25.50;101156.00;;;;5051501;28;20202;-46
2023/09/06 03:08:09;;;;;;;3.05;2.40;;;24.90;58.70;25.40;101160.00;;;;5050967;28;20217;-46
2023/09/06 03:10:35;;;;;;;4.18;2.40;;;24.90;58.70;25.40;101163.00;;;;5049608;28;20185;-46
2023/09/06 03:13:01;;;;;;;2.95;2.38;;;24.90;58.80;25.40;101163.00;;;;5051843;28;20228;-46
2023/09/06 03:15:28;;;;;;;2.20;2.00;;;24.90;58.80;25.40;101164.00;;;;5051991;28;20811;-46
2023/09/06 03:18:00;;;;;;;3.72;2.58;;;24.90;59.00;25.40;101157.00;;;;5049405;28;20251;-46
2023/09/06 03:20:42;;;;;;;3.25;2.53;;;24.90;59.20;25.30;101162.00;;;;5049073;28;20175;-46
2023/09/06 03:23:19;;;;;;;2.30;2.10;;;24.90;58.90;25.30;101168.00;;;;5050584;28;20209;-46
2023/09/06 03:25:49;;;;;;;2.60;2.40;;;24.80;58.90;25.30;101165.00;;;;5050716;28;20264;-46
2023/09/06 03:28:15;;;;;;;2.45;2.25;;;24.80;58.70;25.30;101162.00;;;;5050705;28;20191;-46
2023/09/06 03:30:44;;;;;;;2.50;2.30;;;24.80;58.70;25.20;101167.00;;;;5049071;28;20178;-46
2023/09/06 03:33:10;;;;;;;2.47;2.28;;;24.80;58.50;25.20;101171.00;;;;5049426;28;20178;-46
2023/09/06 03:35:36;;;;;;;2.50;2.30;;;24.70;58.50;25.20;101179.00;;;;5050585;28;20655;-46
2023/09/06 03:38:02;;;;;;;2.25;2.15;;;24.70;58.60;25.20;101171.00;;;;5048539;28;20631;-47
2023/09/06 03:40:37;;;;;;;2.50;2.30;;;24.60;58.80;25.10;101172.00;;;;5065628;28;20653;-46
2023/09/06 03:43:16;;;;;;;3.13;2.50;;;24.70;58.70;25.10;101178.00;;;;5050605;28;20219;-46
2023/09/06 03:45:51;;;;;;;2.75;2.50;;;24.60;58.60;25.10;101173.00;;;;5050512;28;20280;-47
2023/09/06 03:48:22;;;;;;;3.13;2.33;;;24.60;58.80;25.00;101180.00;;;;5048745;28;20193;-45
2023/09/06 03:50:49;;;;;;;2.45;2.25;;;24.50;58.90;25.00;101173.00;;;;5048983;28;20212;-45
2023/09/06 03:53:15;;;;;;;2.60;2.40;;;24.50;58.90;25.00;101173.00;;;;5050163;28;20540;-47
2023/09/06 03:55:43;;;;;;;2.78;2.58;;;24.40;58.70;24.90;101177.00;;;;5050068;28;20182;-47
2023/09/06 03:58:10;;;;;;;2.83;2.63;;;24.40;58.60;24.90;101175.00;;;;5049280;28;20202;-47
2023/09/06 04:00:39;;;;;;;3.65;2.60;;;24.40;58.60;24.90;101170.00;;;;5047872;28;20569;-47
2023/09/06 04:03:07;;;;;;;2.50;2.30;;;24.40;58.60;24.90;101176.00;;;;5049728;28;20174;-47
2023/09/06 04:05:33;;;;;;;2.95;2.75;;;24.30;58.60;24.90;101172.00;;;;5047504;28;20202;-47
2023/09/06 04:07:59;;;;;;;3.65;2.38;;;24.30;58.50;24.90;101178.00;;;;5054758;28;20208;-47
2023/09/06 04:10:36;;;;;;;3.47;2.72;;;24.30;58.50;24.90;101172.00;;;;5049973;28;20308;-47
2023/09/06 04:13:04;;;;;;;4.57;2.58;;;24.30;58.60;24.80;101180.00;;;;5050954;28;20296;-47
2023/09/06 04:15:34;;;;;;;2.80;2.60;;;24.30;58.80;24.80;101189.00;;;;5050577;28;20198;-47
2023/09/06 04:18:01;;;;;;;2.75;2.55;;;24.30;58.70;24.80;101182.00;;;;5048922;28;20209;-47
2023/09/06 04:20:30;;;;;;;3.67;2.50;;;24.20;58.70;24.80;101183.00;;;;5048977;28;20182;-47
2023/09/06 04:23:00;;;;;;;3.47;2.70;;;24.20;58.80;24.80;101179.00;;;;5049258;28;20185;-47
2023/09/06 04:25:26;;;;;;;3.20;2.90;;;24.20;58.80;24.80;101195.00;;;;5048723;28;20213;-47
2023/09/06 04:27:56;;;;;;;3.60;2.50;;;24.20;58.90;24.70;101189.00;;;;5048384;28;20213;-47
2023/09/06 04:30:30;;;;;;;5.15;2.78;;;24.20;59.00;24.70;101190.00;;;;5049313;28;20178;-47
2023/09/06 04:32:59;;;;;;;3.70;2.40;;;24.20;58.90;24.70;101200.00;;;;5047073;28;20295;-47
2023/09/06 04:35:34;;;;;;;4.00;3.35;;;24.10;58.80;24.70;101204.00;;;;5051323;28;20410;-46
2023/09/06 04:38:02;;;;;;;3.10;2.90;;;24.20;58.90;24.70;101202.00;;;;5051496;28;20194;-46
2023/09/06 04:40:29;;;;;;;3.15;2.53;;;24.10;58.80;24.60;101209.00;;;;5049054;28;20269;-46
2023/09/06 04:42:55;;;;;;;3.15;2.72;;;24.10;58.70;24.60;101210.00;;;;5048718;28;20210;-46
2023/09/06 04:45:21;;;;;;;3.05;2.80;;;24.10;58.70;24.60;101204.00;;;;5048938;28;20185;-46
2023/09/06 04:47:46;;;;;;;3.10;2.80;;;24.10;58.70;24.60;101210.00;;;;5048231;28;20194;-46
2023/09/06 04:50:12;;;;;;;2.60;2.40;;;24.10;58.60;24.60;101205.00;;;;5052043;28;20668;-46
2023/09/06 04:52:47;;;;;;;2.90;2.70;;;24.10;58.60;24.60;101215.00;;;;5051944;28;20202;-46
2023/09/06 04:55:14;;;;;;;3.10;2.80;;;24.10;58.60;24.50;101209.00;;;;5049368;28;20170;-46
2023/09/06 04:57:41;;;;;;;5.22;2.72;;;24.00;58.50;24.50;101206.00;;;;5048022;28;20295;-46
2023/09/06 05:00:16;;;;;;;3.13;2.60;;;24.00;58.60;24.50;101212.00;;;;5048352;28;20244;-47
2023/09/06 05:02:42;;;;;;;3.15;2.88;;;24.00;58.60;24.40;101214.00;;;;5048638;28;20671;-47
2023/09/06 05:05:08;;;;;;;2.92;2.60;;;24.00;58.60;24.40;101211.00;;;;5048701;28;20186;-47
2023/09/06 05:07:34;;;;;;;3.08;2.72;;;24.00;58.60;24.40;101217.00;;;;5048416;28;20217;-47
2023/09/06 05:10:00;;;;;;;4.20;2.60;;;23.90;58.50;24.40;101215.00;;;;5048802;28;20216;-45
2023/09/06 05:12:25;;;;;;;3.15;2.80;;;23.90;59.20;24.40;101212.00;;;;5048812;28;20216;-46
2023/09/06 05:14:53;;;;;;;3.40;3.10;;;23.90;58.60;24.40;101211.00;;;;5050707;28;20174;-47
2023/09/06 05:17:18;;;;;;;9.13;2.80;;;23.90;58.60;24.40;101220.00;;;;5048316;28;20214;-47
2023/09/06 05:19:50;;;;;;;3.08;2.78;;;23.90;58.70;24.40;101216.00;;;;5048652;28;20190;-47
2023/09/06 05:22:16;;;;;;;2.50;2.30;;;23.90;58.80;24.40;101226.00;;;;5049822;28;20178;-48
2023/09/06 05:24:41;;;;;;;2.70;2.50;;;23.90;58.80;24.40;101219.00;;;;5048494;28;20478;-47
2023/09/06 05:27:07;;;;;;;2.85;2.50;;;23.90;58.90;24.30;101219.00;;;;5047302;28;20296;-47
2023/09/06 05:29:33;;;;;;;2.70;2.47;;;23.90;58.90;24.30;101236.00;;;;5048370;28;20226;-46
2023/09/06 05:31:58;;;;;;;2.80;2.60;;;23.90;58.90;24.30;101231.00;;;;5048774;28;20174;-46
2023/09/06 05:34:24;;;;;;;3.72;2.75;;;23.80;58.90;24.30;101238.00;;;;5048606;28;20175;-46
2023/09/06 05:36:51;;;;;;;3.53;2.97;;;23.80;58.90;24.30;101227.00;;;;5047929;28;20202;-47
2023/09/06 05:39:20;;;;;;;2.83;2.63;;;23.80;58.90;24.30;101222.00;;;;5048326;28;20258;-46
2023/09/06 05:41:47;;;;;;;2.75;2.55;;;23.80;58.90;24.30;101218.00;;;;5047858;28;20656;-47
2023/09/06 05:44:13;;;;;;;3.20;2.88;;;23.80;58.80;24.20;101216.00;;;;5047448;28;20584;-47
2023/09/06 05:46:39;;;;;;;3.33;3.03;;;23.80;58.80;24.20;101227.00;;;;5051319;28;20260;-45
2023/09/06 05:49:05;;;;;;;2.78;2.58;;;23.80;58.90;24.20;101230.00;;;;5033536;28;20216;-46
2023/09/06 05:51:31;;;;;;;3.30;2.60;;;23.80;58.90;24.20;101228.00;;;;5051913;28;20663;-46
2023/09/06 05:53:58;;;;;;;2.70;2.50;;;23.70;58.90;24.20;101225.00;;;;5033917;28;20221;-46
2023/09/06 05:56:24;;;;;;;3.05;2.78;;;23.80;59.10;24.20;101228.00;;;;5051410;28;20182;-46
2023/09/06 05:58:50;;;;;;;3.00;2.70;;;23.70;59.00;24.20;101231.00;;;;5051895;28;20174;-46
2023/09/06 06:01:17;;;;;;;2.78;2.58;;;23.80;59.10;24.20;101226.00;;;;5050981;28;20181;-46
2023/09/06 06:03:43;;;;;;;3.88;2.85;;;23.70;59.00;24.20;101232.00;;;;5051906;28;20185;-47
2023/09/06 06:06:13;;;;;;;3.10;2.80;;;23.70;59.00;24.10;101237.00;;;;5051424;28;20492;-46
2023/09/06 06:08:39;;;;;;;3.38;3.00;;;23.70;59.20;24.10;101234.00;;;;5050313;28;20417;-46
2023/09/06 06:11:05;;;;;;;5.57;3.25;;;23.70;59.20;24.10;101227.00;;;;5051372;28;20277;-46
2023/09/06 06:13:32;;;;;;;3.88;2.92;;;23.70;59.30;24.10;101233.00;;;;5058184;28;20213;-46
2023/09/06 06:15:57;;;;;;;3.20;2.83;;;23.70;59.40;24.10;101229.00;;;;5051186;28;20186;-46
2023/09/06 06:18:25;;;;;;;3.70;2.75;;;23.70;59.50;24.10;101233.00;;;;5050494;28;20202;-46
2023/09/06 06:20:52;;;;;;;2.80;2.60;;;23.70;59.60;24.10;101244.00;;;;5050906;28;20243;-46
2023/09/06 06:23:17;;;;;;;3.10;2.80;;;23.60;59.60;24.10;101242.00;;;;5032848;28;20186;-49
2023/09/06 06:25:43;;;;;;;3.25;2.95;;;23.70;59.70;24.10;101245.00;;;;5050621;28;20198;-46
2023/09/06 06:28:09;;;;;;;3.20;3.00;;;23.60;59.70;24.10;101244.00;;;;5050157;28;20198;-46
2023/09/06 06:30:34;;;;;;;3.20;2.90;;;23.70;59.80;24.10;101243.00;;;;5051184;28;20178;-46
2023/09/06 06:33:00;;;;;;;3.75;3.03;;;23.60;59.80;24.10;101240.00;;;;5050924;28;20204;-46
2023/09/06 06:35:26;;;;;;;3.25;2.95;;;23.60;59.90;24.00;101248.00;;;;5050728;28;20232;-45
2023/09/06 06:37:52;;;;;;;3.72;3.30;;;23.60;59.90;24.00;101240.00;;;;5056491;28;20597;-46
2023/09/06 06:40:18;;;;;;;3.20;2.70;;;23.60;60.10;24.00;101254.00;;;;5051656;28;20320;-46
2023/09/06 06:42:45;;;;;;;3.17;2.83;;;23.60;60.20;24.00;101252.00;;;;5050377;28;20186;-46
2023/09/06 06:45:11;;;;;;;3.70;3.03;;;23.60;60.20;24.00;101249.00;;;;5050887;28;20652;-46
2023/09/06 06:47:36;;;;;;;2.97;2.78;;;23.60;60.30;24.00;101255.00;;;;5048540;28;20217;-46
2023/09/06 06:50:06;;;;;;;3.23;2.90;;;23.60;60.30;24.00;101262.00;;;;5049765;28;20186;-46
2023/09/06 06:52:36;;;;;;;2.97;2.78;;;23.50;60.40;24.00;101260.00;;;;5053717;28;20649;-47
2023/09/06 06:55:03;;;;;;;3.10;2.80;;;23.60;60.60;23.90;101265.00;;;;5052220;28;20222;-46
2023/09/06 06:57:30;;;;;;;3.30;3.00;;;23.50;60.60;24.00;101259.00;;;;5049760;28;20222;-45
2023/09/06 06:59:56;;;;;;;2.90;2.70;;;23.50;60.70;24.00;101262.00;;;;5050445;28;20201;-47
2023/09/06 07:02:22;;;;;;;2.97;2.75;;;23.50;60.70;24.00;101267.00;;;;5049491;28;20595;-47
2023/09/06 07:04:48;;;;;;;3.17;2.95;;;23.50;60.80;24.00;101275.00;;;;5050499;28;20697;-47
2023/09/06 07:07:13;;;;;;;3.17;2.90;;;23.50;61.10;24.00;101260.00;;;;5050017;28;20259;-47
2023/09/06 07:09:39;;;;;;;3.63;3.33;;;23.50;61.30;24.00;101266.00;;;;5050520;28;20783;-46
2023/09/06 07:12:05;;;;;;;3.53;3.00;;;23.50;61.20;24.10;101265.00;;;;5050034;28;20178;-47
2023/09/06 07:14:31;;;;;;;3.05;2.85;;;23.60;61.50;24.10;101255.00;;;;5052260;28;20182;-46
2023/09/06 07:16:58;;;;;;;3.67;3.28;;;23.60;61.30;24.10;101260.00;;;;5047977;28;20731;-45
2023/09/06 07:19:24;;;;;;;4.05;3.20;;;23.60;61.40;24.10;101261.00;;;;5049514;28;20186;-46
2023/09/06 07:21:50;;;;;;;3.30;3.00;;;23.60;61.60;24.20;101252.00;;;;5049888;28;20715;-45
2023/09/06 07:24:15;;;;;;;3.20;3.00;;;23.60;61.50;24.20;101253.00;;;;5050120;28;20629;-45
2023/09/06 07:26:42;;;;;;;4.43;3.28;;;23.70;61.80;24.20;101252.00;;;;5048689;28;20284;-46
2023/09/06 07:29:10;;;;;;;3.55;3.10;;;23.70;61.80;24.30;101251.00;;;;5010949;28;20187;-46
2023/09/06 07:31:36;;;;;;;3.80;3.40;;;23.70;61.80;24.30;101259.00;;;;5029339;28;20210;-46
2023/09/06 07:34:03;;;;;;;3.50;3.10;;;23.70;61.70;24.30;101251.00;;;;5029040;28;20229;-46
2023/09/06 07:36:29;;;;;;;3.42;3.17;;;23.80;61.90;24.30;101267.00;;;;5027824;28;20175;-45
2023/09/06 07:38:56;;;;;;;3.85;3.35;;;23.70;61.90;24.30;101262.00;;;;4995261;28;20672;-45
2023/09/06 07:41:22;;;;;;;3.95;3.20;;;23.80;62.00;24.30;101267.00;;;;5011525;28;20683;-45
2023/09/06 07:43:48;;;;;;;3.30;3.00;;;23.80;62.30;24.30;101270.00;;;;5029399;28;20187;-45
2023/09/06 07:46:14;;;;;;;3.47;3.03;;;23.80;62.00;24.30;101269.00;;;;5029369;28;20211;-45
2023/09/06 07:48:40;;;;;;;3.40;3.10;;;23.80;62.20;24.40;101268.00;;;;5029651;28;20286;-46
2023/09/06 07:51:06;;;;;;;3.47;3.17;;;23.80;62.30;24.40;101269.00;;;;5038856;28;20332;-45
2023/09/06 07:53:32;;;;;;;3.67;3.38;;;23.90;62.20;24.40;101269.00;;;;5049713;28;20722;-46
2023/09/06 07:55:57;;;;;;;3.28;3.00;;;23.90;62.10;24.40;101277.00;;;;5049280;28;20183;-45
2023/09/06 07:58:23;;;;;;;3.40;3.10;;;23.90;62.10;24.40;101264.00;;;;5048817;28;20198;-45
2023/09/06 08:00:49;;;;;;;3.40;3.20;;;23.90;62.50;24.40;101269.00;;;;5049584;28;20571;-45
2023/09/06 08:03:15;;;;;;;4.05;3.28;;;23.90;62.20;24.40;101268.00;;;;5049596;28;20265;-45
2023/09/06 08:05:41;;;;;;;3.90;3.50;;;23.90;62.40;24.40;101269.00;;;;5042121;28;20237;-46
2023/09/06 08:08:11;;;;;;;3.63;3.33;;;23.90;62.30;24.40;101269.00;;;;5047827;28;20725;-47
2023/09/06 08:10:37;;;;;;;3.40;3.10;;;23.90;62.40;24.50;101274.00;;;;5049382;28;20614;-47
2023/09/06 08:13:04;;;;;;;3.55;3.25;;;23.90;62.70;24.50;101272.00;;;;5049525;28;20595;-47
2023/09/06 08:15:31;;;;;;;3.42;3.15;;;24.00;62.80;24.50;101271.00;;;;5050465;28;20182;-46
2023/09/06 08:17:56;;;;;;;3.78;3.47;;;24.00;62.70;24.50;101276.00;;;;5048746;28;20194;-47
2023/09/06 08:20:22;;;;;;;4.25;3.17;;;24.00;62.80;24.50;101269.00;;;;5048888;28;20267;-47
2023/09/06 08:22:48;;;;;;;3.80;3.50;;;24.00;62.70;24.50;101268.00;;;;5047739;28;20186;-47
2023/09/06 08:25:14;;;;;;;4.25;3.50;;;24.00;62.40;24.50;101266.00;;;;5049257;28;20257;-53
2023/09/06 08:27:40;;;;;;;10.15;5.10;;;24.00;62.20;24.50;101277.00;;;;5048200;28;20554;-53
2023/09/06 08:30:10;;;;;;;4.00;3.58;;;24.00;62.30;24.50;101265.00;;;;5048919;28;20170;-53
2023/09/06 08:32:40;;;;;;;4.95;3.50;;;24.00;62.50;24.50;101267.00;;;;5049160;28;20259;-52
2023/09/06 08:35:07;;;;;;;5.88;3.45;;;24.00;62.80;24.60;101272.00;;;;5049010;28;20174;-53
2023/09/06 08:37:34;;;;;;;3.85;3.40;;;24.00;62.80;24.60;101266.00;;;;5047214;28;20202;-54
2023/09/06 08:40:01;;;;;;;8.00;3.60;;;24.00;62.90;24.60;101271.00;;;;5048796;28;20185;-52
2023/09/06 08:42:27;;;;;;;4.55;3.65;;;24.00;63.50;24.60;101268.00;;;;5051635;28;20188;-52
2023/09/06 08:44:53;;;;;;;3.72;3.40;;;24.10;63.70;24.60;101263.00;;;;5053104;28;20236;-52
2023/09/06 08:47:19;;;;;;;4.32;3.30;;;24.10;63.50;24.60;101275.00;;;;5046767;28;20218;-52
2023/09/06 08:49:46;;;;;;;6.15;3.17;;;24.00;63.50;24.60;101274.00;;;;5046574;28;20170;-52
2023/09/06 08:52:14;;;;;;;5.72;3.50;;;24.10;63.90;24.70;101271.00;;;;5047275;28;20186;-54
2023/09/06 08:54:49;;;;;;;5.15;3.58;;;24.10;64.30;24.70;101252.00;;;;5047294;28;20257;-52
2023/09/06 08:57:15;;;;;;;4.43;3.30;;;24.10;64.00;24.70;101271.00;;;;5046764;28;20219;-53
2023/09/06 08:59:41;;;;;;;5.38;3.65;;;24.10;64.70;24.70;101270.00;;;;5053672;28;20234;-53
2023/09/06 09:02:10;;;;;;;4.05;3.65;;;24.10;64.90;24.80;101267.00;;;;5048834;28;20663;-53
2023/09/06 09:04:41;;;;;;;5.20;3.42;;;24.20;65.20;24.80;101275.00;;;;5048596;28;20186;-53
2023/09/06 09:07:12;;;;;;;5.20;3.58;;;24.20;65.20;24.80;101272.00;;;;5047508;28;20279;-53
2023/09/06 09:10:01;;;;;;;3.80;3.40;;;24.20;65.20;24.80;101268.00;;;;5047941;28;20190;-53
2023/09/06 09:12:31;;;;;;;4.55;3.30;;;24.20;65.20;24.80;101270.00;;;;5047768;28;20178;-53
2023/09/06 09:14:57;;;;;;;4.72;3.33;;;24.20;65.20;24.80;101280.00;;;;5051176;28;20171;-52
2023/09/06 09:17:24;;;;;;;3.85;3.35;;;24.20;65.20;24.90;101274.00;;;;5048135;28;20224;-53
2023/09/06 09:19:55;;;;;;;3.63;3.15;;;24.20;65.30;24.90;101275.00;;;;5050011;28;20182;-53
2023/09/06 09:22:25;;;;;;;3.58;3.28;;;24.20;65.70;24.90;101275.00;;;;5052668;28;20837;-53
2023/09/06 09:24:57;;;;;;;3.95;3.30;;;24.20;65.70;24.90;101270.00;;;;5052898;28;20239;-53
2023/09/06 09:27:23;;;;;;;3.53;3.22;;;24.20;65.70;24.90;101274.00;;;;5050306;28;20218;-53
2023/09/06 09:29:49;;;;;;;4.78;3.55;;;24.30;66.10;24.90;101265.00;;;;5052209;28;20663;-53
2023/09/06 09:32:15;;;;;;;3.33;3.13;;;24.30;65.80;25.00;101274.00;;;;5052406;28;20178;-53
2023/09/06 09:34:41;;;;;;;7.00;3.30;;;24.20;66.00;25.00;101273.00;;;;5045089;28;20186;-53
2023/09/06 09:37:10;;;;;;;3.50;3.00;;;24.30;66.30;25.00;101270.00;;;;5050449;28;20210;-53
2023/09/06 09:39:37;;;;;;;3.60;3.30;;;24.20;66.30;25.00;101270.00;;;;5032309;28;20175;-53
2023/09/06 09:42:05;;;;;;;3.47;3.03;;;24.30;66.60;25.00;101271.00;;;;5032362;28;20178;-53
2023/09/06 09:44:30;;;;;;;3.30;3.00;;;24.30;66.40;25.00;101279.00;;;;5032342;28;20275;-53
2023/09/06 09:46:59;;;;;;;3.97;3.03;;;24.30;66.70;25.00;101280.00;;;;5031844;28;20242;-53
2023/09/06 09:49:26;;;;;;;3.30;3.00;;;24.30;66.70;25.00;101272.00;;;;5032254;28;20225;-53
2023/09/06 09:51:52;;;;;;;3.67;3.38;;;24.30;67.00;25.10;101276.00;;;;5032429;28;20309;-53
2023/09/06 09:54:18;;;;;;;3.58;3.28;;;24.30;66.70;25.00;101269.00;;;;5032205;28;20258;-53
2023/09/06 09:56:58;;;;;;;3.72;3.35;;;24.30;66.70;25.10;101270.00;;;;5013604;28;20345;-54
2023/09/06 09:59:24;;;;;;;3.65;3.35;;;24.40;67.00;25.10;101266.00;;;;5016182;28;20691;-54
2023/09/06 10:01:53;;;;;;;4.10;3.30;;;24.40;67.10;25.10;101264.00;;;;5017990;28;20186;-54
2023/09/06 10:04:19;;;;;;;3.80;3.28;;;24.40;67.10;25.10;101267.00;;;;5050856;28;20252;-53
2023/09/06 10:06:45;;;;;;;3.28;2.97;;;24.40;67.20;25.20;101260.00;;;;5051010;28;20198;-54
2023/09/06 10:09:12;;;;;;;3.47;3.17;;;24.40;67.40;25.20;101257.00;;;;5050093;28;20204;-53
2023/09/06 10:11:39;;;;;;;3.30;3.00;;;24.40;67.50;25.20;101262.00;;;;5046866;28;20687;-53
2023/09/06 10:14:04;;;;;;;3.45;3.15;;;24.40;67.80;25.20;101254.00;;;;5052905;28;20671;-54
2023/09/06 10:16:31;;;;;;;3.00;2.80;;;24.40;67.60;25.20;101256.00;;;;5050041;28;20232;-54
2023/09/06 10:18:57;;;;;;;3.10;2.90;;;24.50;67.70;25.20;101253.00;;;;5051084;28;20224;-53
2023/09/06 10:21:23;;;;;;;3.30;3.00;;;24.50;68.80;25.20;101253.00;;;;5050301;28;20178;-53
2023/09/06 10:23:50;;;;;;;3.28;3.00;;;24.50;68.10;25.30;101255.00;;;;5051303;28;20194;-53
2023/09/06 10:26:26;;;;;;;3.60;3.30;;;24.50;67.90;25.30;101250.00;;;;5050996;28;20271;-54
2023/09/06 10:28:59;;;;;;;3.28;2.97;;;24.50;67.90;25.30;101259.00;;;;5051057;28;20174;-53
2023/09/06 10:31:59;;;;;;;3.30;3.10;;;24.60;68.20;25.30;101257.00;;;;5050840;28;20175;-54
2023/09/06 10:34:24;;;;;;;3.50;3.20;;;24.60;68.20;25.30;101221.00;;;;5031992;28;20197;-54
2023/09/06 10:36:55;;;;;;;3.38;3.08;;;24.70;68.50;25.30;101244.00;;;;5044910;28;20194;-54
2023/09/06 10:39:22;;;;;;;3.45;3.15;;;24.70;68.50;25.40;101248.00;;;;5050890;28;20182;-53
2023/09/06 10:42:13;;;;;;;3.30;3.03;;;24.70;68.70;25.40;101248.00;;;;5051744;28;20189;-53
2023/09/06 10:44:54;;;;;;;3.40;3.20;;;24.70;68.50;25.40;101253.00;;;;5047032;28;20182;-53
2023/09/06 10:47:32;;;;;;;2.90;2.70;;;24.70;68.90;25.40;101244.00;;;;5051487;28;20206;-53
2023/09/06 10:50:20;;;;;;;3.42;3.10;;;24.80;68.90;25.40;101235.00;;;;5054030;28;20205;-53